Time;durP1;ratioP1;P1;durP2;ratioP2;P2;SDS_P1;SDS_P2;PMS_P1;PMS_P2;Temp;Humidity;BMP_temperature;BMP_pressure;BME280_temperature;BME280_humidity;BME280_pressure;Samples;Min_cycle;Max_cycle;Signal;HPM_P1;HPM_P2
2022/09/19 00:01:14;;;;;;;1999.90;999.90;;;12.30;99.90;;;;;;5055702;28;20399;-79
2022/09/19 00:03:43;;;;;;;1999.90;999.90;;;12.30;99.90;;;;;;5055659;28;20025;-79
2022/09/19 00:06:10;;;;;;;1999.90;999.90;;;12.20;99.90;;;;;;5055744;28;20021;-73
2022/09/19 00:08:38;;;;;;;1999.90;999.90;;;12.20;99.90;;;;;;5055368;28;20096;-73
2022/09/19 00:11:05;;;;;;;1999.90;999.90;;;12.10;99.90;;;;;;5055790;28;20452;-80
2022/09/19 00:13:33;;;;;;;1999.90;999.90;;;12.10;99.90;;;;;;5055262;28;20028;-80
2022/09/19 00:16:00;;;;;;;1999.90;999.90;;;12.00;99.90;;;;;;5054780;28;20021;-74
2022/09/19 00:18:27;;;;;;;1999.90;999.90;;;12.00;99.90;;;;;;5054973;28;20467;-73
2022/09/19 00:20:53;;;;;;;1999.90;999.90;;;11.90;99.90;;;;;;5055136;28;20055;-80
2022/09/19 00:26:11;;;;;;;1999.90;999.90;;;11.80;99.90;;;;;;5055483;28;20035;-73
2022/09/19 00:28:38;;;;;;;1999.90;999.90;;;11.80;99.90;;;;;;5035328;28;20069;-80
2022/09/19 00:31:04;;;;;;;1999.90;999.90;;;11.80;99.90;;;;;;5033873;28;20095;-73
2022/09/19 00:33:31;;;;;;;1999.90;999.90;;;11.70;99.90;;;;;;5033818;28;20021;-80
2022/09/19 00:36:04;;;;;;;1999.90;999.90;;;11.70;99.90;;;;;;5033910;28;20029;-79
2022/09/19 00:38:31;;;;;;;1999.90;999.90;;;11.80;99.90;;;;;;5037734;28;20029;-80
2022/09/19 00:40:57;;;;;;;1999.90;999.90;;;11.90;99.90;;;;;;5053863;28;20021;-73
2022/09/19 00:43:41;;;;;;;1999.90;999.90;;;12.00;99.90;;;;;;5053848;28;20032;-73
2022/09/19 00:46:07;;;;;;;1999.90;999.90;;;12.10;99.90;;;;;;5052272;28;20411;-73
2022/09/19 00:48:34;;;;;;;1999.90;999.90;;;12.20;99.90;;;;;;5053390;28;20115;-73
2022/09/19 00:51:02;;;;;;;1999.90;999.90;;;12.40;99.90;;;;;;5053943;28;20035;-80
2022/09/19 00:53:30;;;;;;;1999.90;999.90;;;12.40;99.90;;;;;;5053744;28;20048;-73
2022/09/19 00:55:56;;;;;;;1999.90;999.90;;;12.50;99.90;;;;;;5053405;28;20021;-73
2022/09/19 00:58:24;;;;;;;1999.90;999.90;;;12.50;99.90;;;;;;5053365;28;20029;-73
2022/09/19 01:00:50;;;;;;;1999.90;999.90;;;12.50;99.90;;;;;;5051687;28;20488;-79
2022/09/19 01:03:16;;;;;;;1999.90;999.90;;;12.50;99.90;;;;;;5053189;28;20435;-73
2022/09/19 01:05:49;;;;;;;1999.90;999.90;;;12.50;99.90;;;;;;5053347;28;20029;-79
2022/09/19 01:08:39;;;;;;;1999.90;999.90;;;12.40;99.90;;;;;;5053318;28;20033;-73
2022/09/19 01:11:14;;;;;;;1999.90;999.90;;;12.30;99.90;;;;;;5053439;28;20542;-73
2022/09/19 01:13:52;;;;;;;1999.90;999.90;;;12.30;99.90;;;;;;5052812;28;20067;-73
2022/09/19 01:16:32;;;;;;;1999.90;999.90;;;12.20;99.90;;;;;;5052530;28;20075;-73
2022/09/19 01:19:23;;;;;;;1999.90;999.90;;;12.10;99.90;;;;;;5053179;28;20017;-73
2022/09/19 01:22:03;;;;;;;1999.90;999.90;;;12.10;99.90;;;;;;5052844;28;20033;-73
2022/09/19 01:24:40;;;;;;;1999.90;999.90;;;12.00;99.90;;;;;;5052922;28;20055;-80
2022/09/19 01:27:26;;;;;;;1999.90;999.90;;;12.00;99.90;;;;;;5045618;28;20018;-79
2022/09/19 01:30:00;;;;;;;1999.90;999.90;;;11.90;99.90;;;;;;4990919;28;1218506;-73
2022/09/19 01:32:36;;;;;;;1999.90;999.90;;;11.90;99.90;;;;;;5033676;28;20382;-73
2022/09/19 01:35:08;;;;;;;1999.90;999.90;;;11.90;99.90;;;;;;5034193;28;20403;-73
2022/09/19 01:37:43;;;;;;;1999.90;999.90;;;11.80;99.90;;;;;;5033523;28;20029;-73
2022/09/19 01:40:11;;;;;;;1999.90;999.90;;;11.80;99.90;;;;;;5051530;28;20387;-73
2022/09/19 01:42:54;;;;;;;1999.90;999.90;;;11.70;99.90;;;;;;5053679;28;20462;-73
2022/09/19 01:45:36;;;;;;;1999.90;999.90;;;11.70;99.90;;;;;;5053947;28;20096;-80
2022/09/19 01:48:11;;;;;;;1999.90;999.90;;;11.70;99.90;;;;;;5052511;28;20124;-73
2022/09/19 01:51:03;;;;;;;1999.90;999.90;;;11.60;99.90;;;;;;5053535;28;20032;-80
2022/09/19 01:53:46;;;;;;;1999.90;999.90;;;11.50;99.90;;;;;;5053789;28;20056;-73
2022/09/19 01:56:43;;;;;;;1999.90;999.90;;;11.50;99.90;;;;;;5053342;28;20104;-80
2022/09/19 01:59:20;;;;;;;1999.90;999.90;;;11.50;99.90;;;;;;5052649;28;20033;-73
2022/09/19 02:01:58;;;;;;;1999.90;999.90;;;11.40;99.90;;;;;;5052966;28;20025;-73
2022/09/19 02:04:31;;;;;;;1999.90;999.90;;;11.30;99.90;;;;;;5053394;28;20025;-79
2022/09/19 02:07:12;;;;;;;1999.90;999.90;;;11.30;99.90;;;;;;5053449;28;20025;-80
2022/09/19 02:09:48;;;;;;;1999.90;999.90;;;11.30;99.90;;;;;;5053146;28;20086;-80
2022/09/19 02:12:17;;;;;;;1999.90;999.90;;;11.30;99.90;;;;;;5052861;28;20021;-73
2022/09/19 02:14:50;;;;;;;1999.90;999.90;;;11.30;99.90;;;;;;5053144;28;20031;-73
2022/09/19 02:17:23;;;;;;;1999.90;999.90;;;11.30;99.90;;;;;;5052646;28;20051;-79
2022/09/19 02:19:54;;;;;;;1999.90;999.90;;;11.30;99.90;;;;;;5052770;28;20029;-80
2022/09/19 02:22:36;;;;;;;1999.90;999.90;;;11.30;99.90;;;;;;5052987;28;20400;-73
2022/09/19 02:25:05;;;;;;;1999.90;999.90;;;11.40;99.90;;;;;;5051677;28;20112;-79
2022/09/19 02:28:04;;;;;;;1999.90;999.90;;;11.40;99.90;;;;;;5042235;28;20022;-73
2022/09/19 02:30:29;;;;;;;1999.90;999.90;;;11.40;99.90;;;;;;5032396;28;20068;-79
2022/09/19 02:32:56;;;;;;;1999.90;999.90;;;11.40;99.90;;;;;;5032589;28;20413;-79
2022/09/19 02:35:39;;;;;;;1999.90;999.90;;;11.40;99.90;;;;;;5033037;28;20033;-79
2022/09/19 02:38:22;;;;;;;1999.90;999.90;;;11.40;99.90;;;;;;5033326;28;20036;-80
2022/09/19 02:41:03;;;;;;;1999.90;999.90;;;11.40;99.90;;;;;;5051182;28;20079;-73
2022/09/19 02:43:50;;;;;;;1999.90;999.90;;;11.40;99.90;;;;;;5052658;28;20025;-73
2022/09/19 02:46:26;;;;;;;1999.90;999.90;;;11.40;99.90;;;;;;5052176;28;20021;-79
2022/09/19 02:49:05;;;;;;;1999.90;999.90;;;11.40;99.90;;;;;;5051858;28;20059;-73
2022/09/19 02:51:38;;;;;;;1999.90;999.90;;;11.40;99.90;;;;;;5052632;28;20075;-80
2022/09/19 02:54:08;;;;;;;;;;;11.40;99.90;;;;;;5052815;28;20094;-73
2022/09/19 02:56:37;;;;;;;1999.90;999.90;;;11.30;99.90;;;;;;5052254;28;20407;-73
2022/09/19 02:59:16;;;;;;;1999.90;999.90;;;11.30;99.90;;;;;;5052530;28;20480;-73
2022/09/19 03:01:48;;;;;;;1999.90;999.90;;;11.20;99.90;;;;;;5051985;28;20507;-79
2022/09/19 03:04:19;;;;;;;1999.90;999.90;;;11.20;99.90;;;;;;5043169;28;20365;-80
2022/09/19 03:06:53;;;;;;;1999.90;999.90;;;11.20;99.90;;;;;;5032408;28;20044;-73
2022/09/19 03:09:24;;;;;;;1999.90;999.90;;;11.20;99.90;;;;;;5032310;28;20026;-73
2022/09/19 03:12:18;;;;;;;1999.90;999.90;;;11.20;99.90;;;;;;5032106;28;20103;-80
2022/09/19 03:14:49;;;;;;;1999.90;999.90;;;11.30;99.90;;;;;;5031566;28;20175;-73
2022/09/19 03:17:18;;;;;;;1999.90;999.90;;;11.30;99.90;;;;;;5047077;28;20043;-79
2022/09/19 03:19:47;;;;;;;1999.90;999.90;;;11.30;99.90;;;;;;5051869;28;20019;-80
2022/09/19 03:22:14;;;;;;;1999.90;999.90;;;11.30;99.90;;;;;;5052140;28;20150;-73
2022/09/19 03:24:41;;;;;;;1999.90;999.90;;;11.40;99.90;;;;;;5051743;28;20053;-80
2022/09/19 03:27:08;;;;;;;1999.90;999.90;;;11.40;99.90;;;;;;5052217;28;20037;-79
2022/09/19 03:29:34;;;;;;;1999.90;999.90;;;11.40;99.90;;;;;;5031941;28;20111;-80
2022/09/19 03:32:00;;;;;;;1999.90;999.90;;;11.40;99.90;;;;;;5031790;28;20516;-73
2022/09/19 03:34:26;;;;;;;1999.90;999.90;;;11.30;99.90;;;;;;5032128;28;20113;-79
2022/09/19 03:36:52;;;;;;;1999.90;999.90;;;11.30;99.90;;;;;;5032016;28;20108;-73
2022/09/19 03:39:18;;;;;;;1999.90;999.90;;;11.30;99.90;;;;;;5042669;28;20484;-80
2022/09/19 03:41:43;;;;;;;1999.90;999.90;;;11.30;99.90;;;;;;5052033;28;20446;-80
2022/09/19 03:44:09;;;;;;;1999.90;999.90;;;11.20;99.90;;;;;;5051891;28;20083;-73
2022/09/19 03:46:35;;;;;;;1999.90;999.90;;;11.20;99.90;;;;;;5051561;28;20068;-80
2022/09/19 03:49:02;;;;;;;1999.90;999.90;;;11.20;99.90;;;;;;5051210;28;20036;-79
2022/09/19 03:51:30;;;;;;;1999.90;999.90;;;11.20;99.90;;;;;;5052007;28;20024;-73
2022/09/19 03:53:56;;;;;;;1999.90;999.90;;;11.10;99.90;;;;;;5051768;28;20399;-80
2022/09/19 03:56:22;;;;;;;1999.90;999.90;;;11.10;99.90;;;;;;5051793;28;20086;-80
2022/09/19 03:58:48;;;;;;;1999.90;999.90;;;11.00;99.90;;;;;;5051661;28;20040;-73
2022/09/19 04:01:14;;;;;;;1999.90;999.90;;;11.00;99.90;;;;;;5051998;28;20028;-73
2022/09/19 04:03:40;;;;;;;1999.90;999.90;;;11.00;99.90;;;;;;5051850;28;20048;-73
2022/09/19 04:06:06;;;;;;;1999.90;999.90;;;11.00;99.90;;;;;;5051753;28;20143;-79
2022/09/19 04:08:32;;;;;;;1999.90;999.90;;;11.00;99.90;;;;;;5051485;28;20116;-80
2022/09/19 04:10:58;;;;;;;1999.90;999.90;;;10.90;99.90;;;;;;5051723;28;20028;-73
2022/09/19 04:13:25;;;;;;;1999.90;999.90;;;10.90;99.90;;;;;;5051697;28;20035;-73
2022/09/19 04:15:51;;;;;;;1999.90;999.90;;;10.90;99.90;;;;;;5050633;28;20021;-79
2022/09/19 04:18:18;;;;;;;1999.90;999.90;;;10.90;99.90;;;;;;5050624;28;20544;-73
2022/09/19 04:20:46;;;;;;;1999.90;999.90;;;10.80;99.90;;;;;;5051326;28;20032;-80
2022/09/19 04:23:13;;;;;;;1999.90;999.90;;;10.80;99.90;;;;;;5053437;28;20033;-73
2022/09/19 04:25:40;;;;;;;1999.90;999.90;;;10.80;99.90;;;;;;5055397;28;20017;-73
2022/09/19 04:28:08;;;;;;;1999.90;999.90;;;10.80;99.90;;;;;;5047485;28;20049;-73
2022/09/19 04:30:35;;;;;;;1999.90;999.90;;;10.70;99.90;;;;;;5034412;28;20060;-80
2022/09/19 04:33:03;;;;;;;1999.90;999.90;;;10.80;99.90;;;;;;5035061;28;20040;-80
2022/09/19 04:35:34;;;;;;;1999.90;999.90;;;10.70;99.90;;;;;;5050629;28;20068;-80
2022/09/19 04:38:04;;;;;;;1999.90;999.90;;;10.70;99.90;;;;;;5034127;28;20116;-80
2022/09/19 04:40:30;;;;;;;1999.90;999.90;;;10.70;99.90;;;;;;5052796;28;20025;-73
2022/09/19 04:42:57;;;;;;;1999.90;999.90;;;10.60;99.90;;;;;;5054995;28;20542;-79
2022/09/19 04:45:22;;;;;;;1999.90;999.90;;;10.60;99.90;;;;;;5054955;28;20024;-73
2022/09/19 04:47:48;;;;;;;1999.90;999.90;;;10.60;99.90;;;;;;5054515;28;20400;-80
2022/09/19 04:50:15;;;;;;;1999.90;999.90;;;10.60;99.90;;;;;;5052743;28;20395;-73
2022/09/19 04:52:41;;;;;;;1999.90;999.90;;;10.50;99.90;;;;;;5053187;28;20033;-73
2022/09/19 04:55:08;;;;;;;1999.90;999.90;;;10.50;99.90;;;;;;5054932;28;20107;-73
2022/09/19 04:57:34;;;;;;;1999.90;999.90;;;10.50;99.90;;;;;;5054717;28;20025;-79
2022/09/19 04:59:59;;;;;;;1999.90;999.90;;;10.40;99.90;;;;;;5052434;28;20032;-73
2022/09/19 05:02:31;;;;;;;1999.90;999.90;;;10.40;99.90;;;;;;5054463;28;20509;-73
2022/09/19 05:04:56;;;;;;;1999.90;999.90;;;10.40;99.90;;;;;;5054567;28;20021;-80
2022/09/19 05:07:28;;;;;;;1999.90;999.90;;;10.40;99.90;;;;;;5054603;28;20040;-79
2022/09/19 05:09:54;;;;;;;1999.90;999.90;;;10.40;99.90;;;;;;5054156;28;20017;-73
2022/09/19 05:12:20;;;;;;;1999.90;999.90;;;10.30;99.90;;;;;;5054026;28;20032;-73
2022/09/19 05:14:46;;;;;;;1999.90;999.90;;;10.30;99.90;;;;;;5052942;28;20032;-80
2022/09/19 05:17:12;;;;;;;1999.90;999.90;;;10.30;99.90;;;;;;5053899;28;20024;-73
2022/09/19 05:19:38;;;;;;;1999.90;999.90;;;10.30;99.90;;;;;;5053652;28;20029;-79
2022/09/19 05:22:03;;;;;;;1999.90;999.90;;;10.30;99.90;;;;;;5053971;28;20025;-79
2022/09/19 05:24:29;;;;;;;1999.90;999.90;;;10.20;99.90;;;;;;5053849;28;20048;-73
2022/09/19 05:26:56;;;;;;;1999.90;999.90;;;10.20;99.90;;;;;;5052843;28;20031;-79
2022/09/19 05:29:22;;;;;;;1999.90;999.90;;;10.20;99.90;;;;;;5035458;28;20053;-73
2022/09/19 05:31:48;;;;;;;1999.90;999.90;;;10.20;99.90;;;;;;5033632;28;20358;-73
2022/09/19 05:34:13;;;;;;;1999.90;999.90;;;10.20;99.90;;;;;;5032681;28;20025;-79
2022/09/19 05:36:40;;;;;;;1999.90;999.90;;;10.20;99.90;;;;;;5046499;28;20039;-80
2022/09/19 05:39:06;;;;;;;1999.90;999.90;;;10.20;99.90;;;;;;5053933;28;20021;-80
2022/09/19 05:41:33;;;;;;;1999.90;999.90;;;10.20;99.90;;;;;;5053139;28;20053;-73
2022/09/19 05:43:58;;;;;;;1999.90;999.90;;;10.20;99.90;;;;;;5053509;28;20032;-73
2022/09/19 05:46:24;;;;;;;1999.90;999.90;;;10.20;99.90;;;;;;5053218;28;20029;-80
2022/09/19 05:48:49;;;;;;;1999.90;999.90;;;10.20;99.90;;;;;;5052168;28;20107;-80
2022/09/19 05:51:15;;;;;;;1999.90;999.90;;;10.20;99.90;;;;;;5049812;28;20396;-77
2022/09/19 05:53:54;;;;;;;1999.90;999.90;;;10.20;99.90;;;;;;5051082;28;20064;-80
2022/09/19 05:56:20;;;;;;;1999.90;999.90;;;10.20;99.90;;;;;;5053430;28;20036;-73
2022/09/19 05:58:46;;;;;;;1999.90;999.90;;;10.30;99.90;;;;;;5053079;28;20050;-73
2022/09/19 06:01:13;;;;;;;1999.90;999.90;;;10.20;99.90;;;;;;5050859;28;20024;-73
2022/09/19 06:03:39;;;;;;;1999.90;999.90;;;10.30;99.90;;;;;;5049724;28;20113;-72
2022/09/19 06:06:11;;;;;;;1999.90;999.90;;;10.30;99.90;;;;;;5045194;28;20059;-72
2022/09/19 06:08:40;;;;;;;1999.90;999.90;;;10.30;99.90;;;;;;5051617;28;20029;-73
2022/09/19 06:11:07;;;;;;;1999.90;999.90;;;10.30;99.90;;;;;;5053050;28;20025;-73
2022/09/19 06:16:18;;;;;;;1999.90;999.90;;;10.30;99.90;;;;;;5050053;28;20514;-79
2022/09/19 06:18:44;;;;;;;1999.90;999.90;;;10.40;99.90;;;;;;5052217;28;20017;-72
2022/09/19 06:21:10;;;;;;;1999.90;999.90;;;10.40;99.90;;;;;;5052293;28;20029;-73
2022/09/19 06:23:35;;;;;;;1999.90;999.90;;;10.50;99.90;;;;;;5050371;28;20021;-73
2022/09/19 06:26:01;;;;;;;1999.90;999.90;;;10.50;99.90;;;;;;5043974;28;20044;-79
2022/09/19 06:28:27;;;;;;;1999.90;999.90;;;10.50;99.90;;;;;;5048900;28;20392;-73
2022/09/19 06:30:53;;;;;;;1999.90;999.90;;;10.50;99.90;;;;;;5051554;28;20057;-79
2022/09/19 06:33:19;;;;;;;1999.90;999.90;;;10.60;99.90;;;;;;5050587;28;20035;-73
2022/09/19 06:35:44;;;;;;;1999.90;999.90;;;10.60;99.90;;;;;;5051898;28;20025;-73
2022/09/19 06:38:11;;;;;;;1999.90;999.90;;;10.70;99.90;;;;;;5052016;28;20076;-73
2022/09/19 06:40:38;;;;;;;1999.90;999.90;;;10.80;99.90;;;;;;5052081;28;20017;-73
2022/09/19 06:43:05;;;;;;;1999.90;999.90;;;10.80;99.90;;;;;;5052321;28;20017;-73
2022/09/19 06:45:38;;;;;;;1999.90;999.90;;;10.90;99.90;;;;;;5051548;28;20025;-79
2022/09/19 06:48:05;;;;;;;1999.90;999.90;;;11.00;99.90;;;;;;5044750;28;20025;-74
2022/09/19 06:50:31;;;;;;;1999.90;999.90;;;11.10;99.90;;;;;;5043916;28;20037;-73
2022/09/19 06:52:57;;;;;;;1999.90;999.90;;;11.10;99.90;;;;;;5050654;28;20048;-79
2022/09/19 06:55:25;;;;;;;1999.90;999.90;;;11.20;99.90;;;;;;5049463;28;20102;-79
2022/09/19 06:58:00;;;;;;;1999.90;999.90;;;11.30;99.90;;;;;;5051613;28;20048;-73
2022/09/19 07:00:27;;;;;;;1999.90;999.90;;;11.30;99.90;;;;;;5049896;28;20070;-73
2022/09/19 07:03:01;;;;;;;1999.90;999.90;;;11.40;99.90;;;;;;5050828;28;20037;-73
2022/09/19 07:05:34;;;;;;;1999.90;999.90;;;11.50;99.90;;;;;;5043145;28;20025;-73
2022/09/19 07:08:01;;;;;;;1999.90;999.90;;;11.60;99.90;;;;;;5037475;28;20492;-73
2022/09/19 07:10:27;;;;;;;1999.90;999.90;;;11.70;99.90;;;;;;5049754;28;20045;-80
2022/09/19 07:13:01;;;;;;;1999.90;999.90;;;11.80;99.90;;;;;;5044738;28;20102;-74
2022/09/19 07:15:36;;;;;;;1999.90;999.90;;;12.00;99.90;;;;;;5048416;28;20022;-73
2022/09/19 07:18:08;;;;;;;1999.90;999.90;;;12.10;99.90;;;;;;5047512;28;20455;-80
2022/09/19 07:20:34;;;;;;;1999.90;999.90;;;12.30;99.90;;;;;;5050369;28;20021;-80
2022/09/19 07:23:05;;;;;;;1999.90;999.90;;;12.40;99.90;;;;;;5048026;28;20048;-78
2022/09/19 07:25:31;;;;;;;1999.90;999.90;;;12.50;99.90;;;;;;5037440;28;20044;-73
2022/09/19 07:28:03;;;;;;;1999.90;999.90;;;12.90;99.90;;;;;;5051164;28;20033;-73
2022/09/19 07:30:33;;;;;;;1999.90;999.90;;;13.70;99.90;;;;;;5050995;28;20041;-80
2022/09/19 07:33:02;;;;;;;1999.90;999.90;;;13.50;99.90;;;;;;5049402;28;20033;-79
2022/09/19 07:35:29;;;;;;;1999.90;999.90;;;13.30;99.90;;;;;;5051151;28;20098;-73
2022/09/19 07:37:56;;;;;;;1999.90;999.90;;;13.30;99.90;;;;;;5053878;28;20029;-78
2022/09/19 07:40:22;;;;;;;1999.90;999.90;;;13.40;99.90;;;;;;5055894;28;20047;-73
2022/09/19 07:42:48;;;;;;;1999.90;999.90;;;13.50;99.90;;;;;;5054503;28;20025;-73
2022/09/19 07:45:16;;;;;;;1999.90;999.90;;;13.60;99.90;;;;;;5052396;28;20373;-80
2022/09/19 07:47:45;;;;;;;1999.90;999.90;;;13.80;99.90;;;;;;5050688;28;20049;-80
2022/09/19 07:50:14;;;;;;;1999.90;999.90;;;14.00;99.90;;;;;;5054641;28;20034;-80
2022/09/19 07:52:41;;;;;;;1999.90;999.90;;;14.80;99.90;;;;;;5051513;28;20078;-73
2022/09/19 07:55:07;;;;;;;1999.90;999.90;;;17.90;99.90;;;;;;5051259;28;20496;-74
2022/09/19 07:57:33;;;;;;;1999.90;999.90;;;20.30;95.50;;;;;;5059021;28;20028;-74
2022/09/19 08:00:00;;;;;;;1999.90;999.90;;;22.00;93.10;;;;;;5058248;28;20403;-74
2022/09/19 08:02:25;;;;;;;1999.90;999.90;;;22.60;91.90;;;;;;5055712;28;20024;-74
2022/09/19 08:04:51;;;;;;;1999.90;999.90;;;23.10;91.40;;;;;;5052133;28;20108;-74
2022/09/19 08:07:17;;;;;;;1999.90;999.90;;;23.20;90.90;;;;;;5051154;28;20488;-74
2022/09/19 08:09:43;;;;;;;1999.90;999.90;;;23.80;90.40;;;;;;5057115;28;20071;-73
2022/09/19 08:12:12;;;;;;;1999.90;999.90;;;22.20;91.00;;;;;;5068235;28;20033;-80
2022/09/19 08:14:38;;;;;;;1999.90;999.90;;;21.40;92.40;;;;;;5057481;28;20113;-73
2022/09/19 08:17:04;;;;;;;1999.90;999.90;;;22.60;91.10;;;;;;5057827;28;20024;-81
2022/09/19 08:19:30;;;;;;;1999.90;999.90;;;23.20;90.30;;;;;;5060449;28;20497;-73
2022/09/19 08:21:57;;;;;;;1999.90;999.90;;;22.70;90.50;;;;;;5065898;28;20013;-73
2022/09/19 08:24:23;;;;;;;1999.90;999.90;;;21.30;91.80;;;;;;5058447;28;20567;-80
2022/09/19 08:26:49;;;;;;;1999.90;999.90;;;20.70;92.80;;;;;;5057608;28;20123;-74
2022/09/19 08:29:15;;;;;;;1999.90;999.90;;;21.60;91.80;;;;;;5065344;28;20491;-73
2022/09/19 08:31:40;;;;;;;1999.90;999.90;;;23.30;90.30;;;;;;5056138;28;20091;-73
2022/09/19 08:34:06;;;;;;;1999.90;999.90;;;24.40;88.70;;;;;;5057276;28;20039;-73
2022/09/19 08:36:33;;;;;;;1999.90;999.90;;;25.10;87.20;;;;;;5072128;28;20115;-80
2022/09/19 08:38:59;;;;;;;1999.90;999.90;;;25.50;85.90;;;;;;5063355;28;20441;-81
2022/09/19 08:41:46;;;;;;;1999.90;999.90;;;26.00;85.20;;;;;;5057672;28;20464;-73
2022/09/19 08:44:29;;;;;;;1999.90;999.90;;;25.80;85.30;;;;;;5052159;28;20055;-74
2022/09/19 08:46:55;;;;;;;1999.90;999.90;;;26.20;84.40;;;;;;5055735;28;20580;-73
2022/09/19 08:49:38;;;;;;;1999.90;999.90;;;26.90;83.70;;;;;;5051522;28;20127;-73
2022/09/19 08:52:23;;;;;;;1999.90;999.90;;;27.10;83.10;;;;;;5067940;28;20025;-73
2022/09/19 08:54:52;;;;;;;1999.90;999.90;;;26.80;83.10;;;;;;5060891;28;20025;-74
2022/09/19 08:57:21;;;;;;;1999.90;999.90;;;26.80;82.90;;;;;;5053646;28;20028;-74
2022/09/19 08:59:50;;;;;;;1999.90;999.90;;;26.30;82.80;;;;;;5054026;28;20132;-74
2022/09/19 09:02:26;;;;;;;1999.90;999.90;;;26.60;82.50;;;;;;5069436;28;20087;-78
2022/09/19 09:04:54;;;;;;;1999.90;999.90;;;26.80;82.60;;;;;;5051359;28;20427;-73
2022/09/19 09:07:38;;;;;;;1999.90;999.90;;;27.10;81.90;;;;;;5061344;28;20017;-79
2022/09/19 09:10:56;;;;;;;1999.90;999.90;;;27.10;81.60;;;;;;5047896;28;20096;-73
2022/09/19 09:13:42;;;;;;;1999.90;999.90;;;27.70;81.00;;;;;;5010890;28;20121;-74
2022/09/19 09:16:29;;;;;;;1999.90;999.90;;;28.00;80.40;;;;;;5001384;28;20445;-78
2022/09/19 09:19:17;;;;;;;1999.90;999.90;;;27.80;80.70;;;;;;5010054;28;20112;-79
2022/09/19 09:22:16;;;;;;;1999.90;999.90;;;27.20;80.60;;;;;;5011289;28;20551;-73
2022/09/19 09:24:45;;;;;;;1999.90;999.90;;;27.00;81.00;;;;;;5010584;28;20037;-72
2022/09/19 09:27:19;;;;;;;1999.90;999.90;;;26.00;81.50;;;;;;5009892;28;20624;-78
2022/09/19 09:29:53;;;;;;;1999.90;999.90;;;24.40;83.90;;;;;;5011977;28;20054;-79
2022/09/19 09:32:30;;;;;;;1999.90;999.90;;;23.30;86.30;;;;;;5015584;28;20045;-78
2022/09/19 09:34:59;;;;;;;1999.90;999.90;;;23.00;87.20;;;;;;5020562;28;20025;-72
2022/09/19 09:37:48;;;;;;;1999.90;999.90;;;22.50;86.70;;;;;;5021331;28;20108;-73
2022/09/19 09:43:26;;;;;;;1999.90;999.90;;;22.50;87.80;;;;;;5017965;28;20045;-78
2022/09/19 09:45:51;;;;;;;1999.90;999.90;;;22.00;88.60;;;;;;5011885;28;20104;-77
2022/09/19 09:48:21;;;;;;;1999.90;999.90;;;21.90;88.90;;;;;;5049660;28;20508;-73
2022/09/19 09:51:23;;;;;;;1999.90;999.90;;;21.90;88.50;;;;;;5056451;28;20031;-73
2022/09/19 09:53:49;;;;;;;1999.90;999.90;;;21.80;88.10;;;;;;4992755;28;20034;-79
2022/09/19 09:56:17;;;;;;;1999.90;999.90;;;21.50;88.60;;;;;;5035694;28;20107;-73
2022/09/19 09:58:49;;;;;;;1999.90;999.90;;;21.30;89.20;;;;;;5071877;28;20082;-79
2022/09/19 10:04:30;;;;;;;1999.90;999.90;;;21.50;88.70;;;;;;5058186;28;20068;-73
2022/09/19 10:07:12;;;;;;;1999.90;999.90;;;21.70;89.40;;;;;;5048377;28;20029;-77
2022/09/19 10:09:43;;;;;;;1999.90;999.90;;;21.40;88.70;;;;;;5062863;28;20039;-77
2022/09/19 10:12:22;;;;;;;1999.90;999.90;;;21.30;89.00;;;;;;5064381;28;20399;-77
2022/09/19 10:14:48;;;;;;;1999.90;999.90;;;21.40;89.10;;;;;;5044809;28;20029;-73
2022/09/19 10:17:19;;;;;;;1999.90;999.90;;;21.20;89.80;;;;;;5054459;28;20036;-73
2022/09/19 10:19:48;;;;;;;1999.90;999.90;;;21.20;89.10;;;;;;5051278;28;20033;-77
2022/09/19 10:22:15;;;;;;;1999.90;999.90;;;21.40;89.40;;;;;;5061451;28;20028;-73
2022/09/19 10:24:56;;;;;;;1999.90;999.90;;;21.30;89.60;;;;;;5064551;28;20488;-77
2022/09/19 10:27:31;;;;;;;1999.90;999.90;;;21.40;88.80;;;;;;5049135;28;20100;-73
2022/09/19 10:30:01;;;;;;;1999.90;999.90;;;21.40;88.90;;;;;;5035490;28;20057;-77
2022/09/19 10:32:36;;;;;;;1999.90;999.90;;;21.50;89.50;;;;;;5060427;28;20032;-77
2022/09/19 10:35:28;;;;;;;1999.90;999.90;;;21.50;88.90;;;;;;5050204;28;20028;-77
2022/09/19 10:37:54;;;;;;;1999.90;999.90;;;21.50;89.40;;;;;;5063048;28;20106;-77
2022/09/19 10:40:21;;;;;;;1999.90;999.90;;;21.30;89.60;;;;;;5052489;28;20423;-74
2022/09/19 10:42:48;;;;;;;1999.90;999.90;;;21.30;89.40;;;;;;5051286;28;20136;-73
2022/09/19 10:45:30;;;;;;;1999.90;999.90;;;21.20;89.40;;;;;;5058862;28;20430;-77
2022/09/19 10:48:08;;;;;;;1999.90;999.90;;;21.40;89.10;;;;;;5046333;28;20492;-77
2022/09/19 10:50:40;;;;;;;1999.90;999.90;;;21.50;88.00;;;;;;5050646;28;20047;-76
2022/09/19 10:53:06;;;;;;;1999.90;999.90;;;21.60;88.20;;;;;;5050689;28;20028;-77
2022/09/19 10:55:35;;;;;;;1999.90;999.90;;;21.50;88.40;;;;;;5049002;28;20047;-76
2022/09/19 10:58:05;;;;;;;1999.90;999.90;;;21.60;88.20;;;;;;5050517;28;20033;-76
2022/09/19 11:00:44;;;;;;;1999.90;999.90;;;21.80;88.40;;;;;;5047453;28;20119;-77
2022/09/19 11:03:23;;;;;;;1999.90;999.90;;;21.70;87.40;;;;;;5056143;28;20024;-77
2022/09/19 11:06:13;;;;;;;1999.90;999.90;;;21.50;87.90;;;;;;5051270;28;20025;-73
2022/09/19 11:08:51;;;;;;;1999.90;999.90;;;21.70;87.20;;;;;;5043552;28;20110;-77
2022/09/19 11:11:45;;;;;;;1999.90;999.90;;;21.80;88.40;;;;;;5051372;28;20637;-77
2022/09/19 11:14:18;;;;;;;1999.90;999.90;;;21.90;88.00;;;;;;5052311;28;20028;-73
2022/09/19 11:17:02;;;;;;;1999.90;999.90;;;21.80;88.00;;;;;;5039297;28;20036;-76
2022/09/19 11:19:36;;;;;;;1999.90;999.90;;;21.70;87.50;;;;;;5032873;28;20040;-74
2022/09/19 11:22:27;;;;;;;1999.90;999.90;;;21.60;88.10;;;;;;5050405;28;20029;-73
2022/09/19 11:24:55;;;;;;;1999.90;999.90;;;21.70;87.50;;;;;;5049895;28;20060;-77
2022/09/19 11:27:29;;;;;;;1999.90;999.90;;;21.80;87.80;;;;;;5052341;28;20033;-77
2022/09/19 11:30:16;;;;;;;1999.90;999.90;;;21.90;88.10;;;;;;5052538;28;20130;-78
2022/09/19 11:32:50;;;;;;;1999.90;999.90;;;22.00;87.80;;;;;;5059049;28;20428;-72
2022/09/19 11:35:27;;;;;;;1999.90;999.90;;;22.20;87.70;;;;;;5054473;28;20017;-72
2022/09/19 11:38:19;;;;;;;1999.90;999.90;;;22.00;88.70;;;;;;5054806;28;20047;-78
2022/09/19 11:40:47;;;;;;;1999.90;999.90;;;22.20;88.70;;;;;;5047044;28;20098;-78
2022/09/19 11:43:30;;;;;;;1999.90;999.90;;;22.40;88.30;;;;;;5053767;28;20040;-79
2022/09/19 11:46:03;;;;;;;1999.90;999.90;;;22.30;88.60;;;;;;5060528;28;20392;-79
2022/09/19 11:49:13;;;;;;;1999.90;999.90;;;22.40;88.50;;;;;;5049698;28;20495;-72
2022/09/19 11:51:52;;;;;;;1999.90;999.90;;;22.50;88.20;;;;;;5059388;28;20020;-78
2022/09/19 11:54:50;;;;;;;1999.90;999.90;;;22.50;87.50;;;;;;5070689;28;20036;-79
2022/09/19 11:57:18;;;;;;;1999.90;999.90;;;22.50;88.40;;;;;;5059601;28;20099;-78
2022/09/19 12:00:13;;;;;;;1999.90;999.90;;;22.70;87.90;;;;;;5052919;28;20048;-73
2022/09/19 12:03:17;;;;;;;1999.90;999.90;;;22.70;88.10;;;;;;5052071;28;20055;-78
2022/09/19 12:06:16;;;;;;;1999.90;999.90;;;22.60;87.90;;;;;;5058517;28;20036;-79
2022/09/19 12:08:45;;;;;;;1999.90;999.90;;;22.80;87.50;;;;;;5042185;28;20033;-73
2022/09/19 12:11:41;;;;;;;1999.90;999.90;;;22.90;88.00;;;;;;5055827;28;20029;-78
2022/09/19 12:14:17;;;;;;;1999.90;999.90;;;22.60;87.60;;;;;;5046467;28;20463;-73
2022/09/19 12:16:53;;;;;;;1999.90;999.90;;;22.90;87.50;;;;;;5055704;28;20063;-78
2022/09/19 12:19:35;;;;;;;1999.90;999.90;;;23.20;86.50;;;;;;5056424;28;20013;-77
2022/09/19 12:22:10;;;;;;;1999.90;999.90;;;23.60;85.70;;;;;;5069650;28;20449;-79
2022/09/19 12:24:54;;;;;;;1999.90;999.90;;;23.50;86.50;;;;;;5036645;28;20396;-73
2022/09/19 12:27:27;;;;;;;1999.90;999.90;;;23.20;85.90;;;;;;5051960;28;20029;-73
2022/09/19 12:30:05;;;;;;;1999.90;999.90;;;23.10;86.40;;;;;;5056068;28;20076;-78
2022/09/19 12:32:51;;;;;;;1999.90;999.90;;;23.30;87.10;;;;;;5054803;28;20033;-79
2022/09/19 12:35:47;;;;;;;1999.90;999.90;;;23.40;87.30;;;;;;5067140;28;20104;-78